sensor_id;sensor_type;location;lat;lon;timestamp;P1;durP1;ratioP1;P2;durP2;ratioP2
38318;SDS011;24121;53.536;10.224;2023-05-07T07:20:20;7.90;;;6.40;;
38318;SDS011;24121;53.536;10.224;2023-05-07T07:22:45;7.35;;;6.25;;
38318;SDS011;24121;53.536;10.224;2023-05-07T07:25:11;7.70;;;6.28;;
38318;SDS011;24121;53.536;10.224;2023-05-07T07:27:36;7.15;;;6.18;;
38318;SDS011;24121;53.536;10.224;2023-05-07T07:30:02;7.07;;;6.03;;
38318;SDS011;24121;53.536;10.224;2023-05-07T07:32:28;8.90;;;6.80;;
38318;SDS011;24121;53.536;10.224;2023-05-07T07:34:53;6.57;;;5.93;;
38318;SDS011;24121;53.536;10.224;2023-05-07T07:37:19;6.90;;;6.20;;
38318;SDS011;24121;53.536;10.224;2023-05-07T07:39:44;6.85;;;5.65;;
38318;SDS011;24121;53.536;10.224;2023-05-07T07:42:10;7.45;;;6.10;;
38318;SDS011;24121;53.536;10.224;2023-05-07T07:44:35;7.22;;;6.50;;
38318;SDS011;24121;53.536;10.224;2023-05-07T07:47:00;7.43;;;6.30;;
38318;SDS011;24121;53.536;10.224;2023-05-07T07:49:26;6.55;;;5.88;;
38318;SDS011;24121;53.536;10.224;2023-05-07T07:51:51;8.43;;;6.78;;
38318;SDS011;24121;53.536;10.224;2023-05-07T07:54:17;7.22;;;5.88;;
38318;SDS011;24121;53.536;10.224;2023-05-07T07:56:42;6.55;;;5.82;;
38318;SDS011;24121;53.536;10.224;2023-05-07T07:59:07;7.07;;;6.38;;
38318;SDS011;24121;53.536;10.224;2023-05-07T08:01:33;6.75;;;5.95;;
38318;SDS011;24121;53.536;10.224;2023-05-07T08:03:58;8.20;;;6.75;;
38318;SDS011;24121;53.536;10.224;2023-05-07T08:06:23;7.18;;;6.43;;
38318;SDS011;24121;53.536;10.224;2023-05-07T08:08:50;7.88;;;7.07;;
38318;SDS011;24121;53.536;10.224;2023-05-07T08:11:15;7.75;;;6.70;;
38318;SDS011;24121;53.536;10.224;2023-05-07T08:13:41;7.32;;;6.60;;
38318;SDS011;24121;53.536;10.224;2023-05-07T08:16:06;7.65;;;6.07;;
38318;SDS011;24121;53.536;10.224;2023-05-07T08:18:31;8.43;;;6.72;;
38318;SDS011;24121;53.536;10.224;2023-05-07T08:20:57;6.75;;;5.65;;
38318;SDS011;24121;53.536;10.224;2023-05-07T08:23:22;6.15;;;5.55;;
38318;SDS011;24121;53.536;10.224;2023-05-07T08:25:48;6.40;;;5.80;;
38318;SDS011;24121;53.536;10.224;2023-05-07T08:28:14;6.63;;;6.00;;
38318;SDS011;24121;53.536;10.224;2023-05-07T08:30:40;7.20;;;5.88;;
38318;SDS011;24121;53.536;10.224;2023-05-07T08:33:05;6.78;;;5.72;;
38318;SDS011;24121;53.536;10.224;2023-05-07T08:35:30;6.75;;;6.10;;
38318;SDS011;24121;53.536;10.224;2023-05-07T08:37:56;6.07;;;5.13;;
38318;SDS011;24121;53.536;10.224;2023-05-07T08:40:23;5.90;;;5.30;;
38318;SDS011;24121;53.536;10.224;2023-05-07T08:42:50;7.30;;;5.40;;
38318;SDS011;24121;53.536;10.224;2023-05-07T08:45:17;5.88;;;5.28;;
38318;SDS011;24121;53.536;10.224;2023-05-07T08:47:44;6.68;;;5.45;;
38318;SDS011;24121;53.536;10.224;2023-05-07T08:50:12;6.38;;;5.47;;
38318;SDS011;24121;53.536;10.224;2023-05-07T08:52:37;7.22;;;5.75;;
38318;SDS011;24121;53.536;10.224;2023-05-07T08:55:07;5.70;;;4.73;;
38318;SDS011;24121;53.536;10.224;2023-05-07T08:57:32;6.53;;;5.82;;
38318;SDS011;24121;53.536;10.224;2023-05-07T08:59:58;5.85;;;5.20;;
38318;SDS011;24121;53.536;10.224;2023-05-07T09:02:23;6.60;;;5.25;;
38318;SDS011;24121;53.536;10.224;2023-05-07T09:04:48;5.43;;;4.65;;
38318;SDS011;24121;53.536;10.224;2023-05-07T09:07:14;5.93;;;5.10;;
38318;SDS011;24121;53.536;10.224;2023-05-07T09:09:39;7.47;;;5.25;;
38318;SDS011;24121;53.536;10.224;2023-05-07T09:12:05;5.60;;;4.88;;
38318;SDS011;24121;53.536;10.224;2023-05-07T09:14:30;5.80;;;4.40;;
38318;SDS011;24121;53.536;10.224;2023-05-07T09:16:56;4.93;;;4.53;;
38318;SDS011;24121;53.536;10.224;2023-05-07T09:19:22;5.03;;;4.45;;
38318;SDS011;24121;53.536;10.224;2023-05-07T09:21:48;6.90;;;4.45;;
38318;SDS011;24121;53.536;10.224;2023-05-07T09:24:15;5.10;;;4.60;;
38318;SDS011;24121;53.536;10.224;2023-05-07T09:26:40;5.13;;;4.57;;
38318;SDS011;24121;53.536;10.224;2023-05-07T09:29:06;4.43;;;4.03;;
38318;SDS011;24121;53.536;10.224;2023-05-07T09:31:35;5.20;;;4.20;;
38318;SDS011;24121;53.536;10.224;2023-05-07T09:34:01;5.75;;;5.15;;
38318;SDS011;24121;53.536;10.224;2023-05-07T09:36:27;5.85;;;5.30;;
38318;SDS011;24121;53.536;10.224;2023-05-07T09:38:52;5.30;;;4.72;;
38318;SDS011;24121;53.536;10.224;2023-05-07T09:41:17;5.15;;;4.30;;
38318;SDS011;24121;53.536;10.224;2023-05-07T09:43:43;4.82;;;4.38;;
38318;SDS011;24121;53.536;10.224;2023-05-07T09:46:12;5.15;;;4.65;;
38318;SDS011;24121;53.536;10.224;2023-05-07T09:48:40;5.07;;;4.57;;
38318;SDS011;24121;53.536;10.224;2023-05-07T09:51:09;5.45;;;4.95;;
38318;SDS011;24121;53.536;10.224;2023-05-07T09:53:40;5.40;;;4.20;;
38318;SDS011;24121;53.536;10.224;2023-05-07T09:56:07;4.65;;;4.25;;
38318;SDS011;24121;53.536;10.224;2023-05-07T09:58:32;4.85;;;4.35;;
38318;SDS011;24121;53.536;10.224;2023-05-07T10:00:58;5.32;;;4.60;;
38318;SDS011;24121;53.536;10.224;2023-05-07T10:03:24;5.90;;;4.30;;
38318;SDS011;24121;53.536;10.224;2023-05-07T10:05:49;4.55;;;4.15;;
38318;SDS011;24121;53.536;10.224;2023-05-07T10:08:15;4.97;;;4.55;;
38318;SDS011;24121;53.536;10.224;2023-05-07T10:10:41;5.45;;;4.57;;
38318;SDS011;24121;53.536;10.224;2023-05-07T10:13:07;6.13;;;4.68;;
38318;SDS011;24121;53.536;10.224;2023-05-07T10:15:35;4.85;;;4.32;;
38318;SDS011;24121;53.536;10.224;2023-05-07T10:18:01;5.03;;;4.53;;
38318;SDS011;24121;53.536;10.224;2023-05-07T10:20:28;5.50;;;4.80;;
38318;SDS011;24121;53.536;10.224;2023-05-07T10:22:53;5.13;;;4.50;;
38318;SDS011;24121;53.536;10.224;2023-05-07T10:25:22;5.05;;;4.55;;
38318;SDS011;24121;53.536;10.224;2023-05-07T10:27:50;5.70;;;4.80;;
38318;SDS011;24121;53.536;10.224;2023-05-07T10:32:50;7.50;;;5.15;;
38318;SDS011;24121;53.536;10.224;2023-05-07T10:35:19;8.80;;;4.80;;
38318;SDS011;24121;53.536;10.224;2023-05-07T10:37:46;5.00;;;4.50;;
38318;SDS011;24121;53.536;10.224;2023-05-07T10:40:13;4.38;;;3.97;;
38318;SDS011;24121;53.536;10.224;2023-05-07T10:42:38;4.78;;;4.07;;
38318;SDS011;24121;53.536;10.224;2023-05-07T10:45:14;6.10;;;4.00;;
38318;SDS011;24121;53.536;10.224;2023-05-07T10:50:31;4.97;;;4.30;;
38318;SDS011;24121;53.536;10.224;2023-05-07T10:55:44;4.50;;;3.92;;
38318;SDS011;24121;53.536;10.224;2023-05-07T11:00:47;4.22;;;3.22;;
38318;SDS011;24121;53.536;10.224;2023-05-07T11:03:13;3.50;;;3.20;;
38318;SDS011;24121;53.536;10.224;2023-05-07T11:05:39;3.95;;;3.35;;
38318;SDS011;24121;53.536;10.224;2023-05-07T11:08:05;3.88;;;3.50;;
38318;SDS011;24121;53.536;10.224;2023-05-07T11:10:50;3.70;;;3.03;;
38318;SDS011;24121;53.536;10.224;2023-05-07T11:13:17;4.90;;;3.60;;
38318;SDS011;24121;53.536;10.224;2023-05-07T11:15:46;4.50;;;3.75;;
38318;SDS011;24121;53.536;10.224;2023-05-07T11:18:16;3.58;;;3.20;;
38318;SDS011;24121;53.536;10.224;2023-05-07T11:26:00;3.40;;;3.10;;
38318;SDS011;24121;53.536;10.224;2023-05-07T11:28:28;4.63;;;3.10;;
38318;SDS011;24121;53.536;10.224;2023-05-07T11:30:53;6.38;;;2.67;;
38318;SDS011;24121;53.536;10.224;2023-05-07T11:33:19;4.00;;;2.70;;
38318;SDS011;24121;53.536;10.224;2023-05-07T11:35:44;3.60;;;3.30;;
38318;SDS011;24121;53.536;10.224;2023-05-07T11:38:10;4.93;;;3.20;;
38318;SDS011;24121;53.536;10.224;2023-05-07T11:40:48;5.28;;;2.90;;
38318;SDS011;24121;53.536;10.224;2023-05-07T11:43:16;3.47;;;3.03;;
38318;SDS011;24121;53.536;10.224;2023-05-07T11:45:42;3.53;;;3.10;;
38318;SDS011;24121;53.536;10.224;2023-05-07T11:48:07;5.57;;;3.03;;
38318;SDS011;24121;53.536;10.224;2023-05-07T11:50:33;3.83;;;3.42;;
38318;SDS011;24121;53.536;10.224;2023-05-07T11:52:58;3.25;;;2.95;;
38318;SDS011;24121;53.536;10.224;2023-05-07T11:55:24;3.10;;;2.80;;
38318;SDS011;24121;53.536;10.224;2023-05-07T11:57:49;3.25;;;2.78;;
38318;SDS011;24121;53.536;10.224;2023-05-07T12:00:15;3.17;;;2.70;;
38318;SDS011;24121;53.536;10.224;2023-05-07T12:02:41;2.72;;;2.53;;
38318;SDS011;24121;53.536;10.224;2023-05-07T12:05:07;3.80;;;2.50;;
38318;SDS011;24121;53.536;10.224;2023-05-07T12:07:33;3.08;;;2.67;;
38318;SDS011;24121;53.536;10.224;2023-05-07T12:09:58;3.03;;;2.53;;
38318;SDS011;24121;53.536;10.224;2023-05-07T12:12:24;2.10;;;2.00;;
38318;SDS011;24121;53.536;10.224;2023-05-07T12:14:49;2.40;;;2.20;;
38318;SDS011;24121;53.536;10.224;2023-05-07T12:17:14;2.33;;;2.10;;
38318;SDS011;24121;53.536;10.224;2023-05-07T12:19:41;2.33;;;2.13;;
38318;SDS011;24121;53.536;10.224;2023-05-07T12:22:08;3.45;;;2.05;;
38318;SDS011;24121;53.536;10.224;2023-05-07T12:24:46;2.58;;;2.10;;
38318;SDS011;24121;53.536;10.224;2023-05-07T12:27:13;2.70;;;2.27;;
38318;SDS011;24121;53.536;10.224;2023-05-07T12:29:39;3.45;;;2.50;;
38318;SDS011;24121;53.536;10.224;2023-05-07T12:32:08;3.22;;;2.20;;
38318;SDS011;24121;53.536;10.224;2023-05-07T12:34:38;2.67;;;2.20;;
38318;SDS011;24121;53.536;10.224;2023-05-07T12:37:04;2.35;;;2.00;;
38318;SDS011;24121;53.536;10.224;2023-05-07T12:39:29;2.30;;;2.08;;
38318;SDS011;24121;53.536;10.224;2023-05-07T12:41:55;2.70;;;2.40;;
38318;SDS011;24121;53.536;10.224;2023-05-07T12:44:23;3.95;;;2.15;;
38318;SDS011;24121;53.536;10.224;2023-05-07T12:46:50;2.45;;;2.25;;
38318;SDS011;24121;53.536;10.224;2023-05-07T12:49:15;3.13;;;2.05;;
38318;SDS011;24121;53.536;10.224;2023-05-07T12:51:42;4.03;;;1.90;;
38318;SDS011;24121;53.536;10.224;2023-05-07T12:54:08;2.38;;;2.17;;
38318;SDS011;24121;53.536;10.224;2023-05-07T12:56:35;2.97;;;2.30;;
38318;SDS011;24121;53.536;10.224;2023-05-07T12:59:01;2.10;;;1.90;;
38318;SDS011;24121;53.536;10.224;2023-05-07T13:01:29;2.03;;;1.83;;
38318;SDS011;24121;53.536;10.224;2023-05-07T13:03:55;4.03;;;2.20;;
38318;SDS011;24121;53.536;10.224;2023-05-07T13:06:21;2.83;;;1.95;;
38318;SDS011;24121;53.536;10.224;2023-05-07T13:08:46;3.25;;;2.13;;
38318;SDS011;24121;53.536;10.224;2023-05-07T13:11:12;3.58;;;1.83;;
38318;SDS011;24121;53.536;10.224;2023-05-07T13:13:39;2.90;;;2.05;;
38318;SDS011;24121;53.536;10.224;2023-05-07T13:16:05;2.35;;;2.00;;
38318;SDS011;24121;53.536;10.224;2023-05-07T13:18:32;3.42;;;1.95;;
38318;SDS011;24121;53.536;10.224;2023-05-07T13:20:58;2.25;;;2.00;;
38318;SDS011;24121;53.536;10.224;2023-05-07T13:23:24;3.13;;;2.53;;
38318;SDS011;24121;53.536;10.224;2023-05-07T13:25:49;3.35;;;2.20;;
38318;SDS011;24121;53.536;10.224;2023-05-07T13:28:15;2.35;;;2.08;;
38318;SDS011;24121;53.536;10.224;2023-05-07T13:30:41;2.75;;;2.05;;
38318;SDS011;24121;53.536;10.224;2023-05-07T13:33:06;3.10;;;2.10;;
38318;SDS011;24121;53.536;10.224;2023-05-07T13:35:32;2.08;;;1.92;;
38318;SDS011;24121;53.536;10.224;2023-05-07T13:37:57;2.45;;;1.67;;
38318;SDS011;24121;53.536;10.224;2023-05-07T13:40:22;2.60;;;1.90;;
38318;SDS011;24121;53.536;10.224;2023-05-07T13:42:48;2.92;;;1.88;;
38318;SDS011;24121;53.536;10.224;2023-05-07T13:45:14;3.33;;;1.80;;
38318;SDS011;24121;53.536;10.224;2023-05-07T13:47:40;3.20;;;1.67;;
38318;SDS011;24121;53.536;10.224;2023-05-07T13:50:06;2.47;;;1.92;;
38318;SDS011;24121;53.536;10.224;2023-05-07T13:52:33;2.08;;;1.55;;
38318;SDS011;24121;53.536;10.224;2023-05-07T13:54:58;3.92;;;2.00;;
38318;SDS011;24121;53.536;10.224;2023-05-07T13:57:23;1.75;;;1.65;;
38318;SDS011;24121;53.536;10.224;2023-05-07T13:59:49;1.95;;;1.70;;
38318;SDS011;24121;53.536;10.224;2023-05-07T14:02:14;2.75;;;1.50;;
38318;SDS011;24121;53.536;10.224;2023-05-07T14:04:40;2.08;;;1.60;;
38318;SDS011;24121;53.536;10.224;2023-05-07T14:07:05;1.80;;;1.70;;
38318;SDS011;24121;53.536;10.224;2023-05-07T14:09:30;2.83;;;1.60;;
38318;SDS011;24121;53.536;10.224;2023-05-07T14:11:55;1.73;;;1.63;;
38318;SDS011;24121;53.536;10.224;2023-05-07T14:14:21;4.40;;;1.60;;
38318;SDS011;24121;53.536;10.224;2023-05-07T14:16:46;2.92;;;1.70;;
38318;SDS011;24121;53.536;10.224;2023-05-07T14:19:12;5.55;;;1.98;;
38318;SDS011;24121;53.536;10.224;2023-05-07T14:21:37;2.47;;;2.15;;
38318;SDS011;24121;53.536;10.224;2023-05-07T14:24:03;3.38;;;2.15;;
38318;SDS011;24121;53.536;10.224;2023-05-07T14:26:28;3.05;;;1.90;;
38318;SDS011;24121;53.536;10.224;2023-05-07T14:28:54;1.92;;;1.67;;
38318;SDS011;24121;53.536;10.224;2023-05-07T14:31:22;2.17;;;1.80;;
38318;SDS011;24121;53.536;10.224;2023-05-07T14:33:47;2.85;;;2.38;;
38318;SDS011;24121;53.536;10.224;2023-05-07T14:36:14;2.72;;;2.10;;
38318;SDS011;24121;53.536;10.224;2023-05-07T14:38:40;5.00;;;1.80;;
38318;SDS011;24121;53.536;10.224;2023-05-07T14:41:05;2.15;;;1.95;;
38318;SDS011;24121;53.536;10.224;2023-05-07T14:43:31;2.75;;;1.98;;
38318;SDS011;24121;53.536;10.224;2023-05-07T14:45:56;1.90;;;1.65;;
38318;SDS011;24121;53.536;10.224;2023-05-07T14:48:21;3.33;;;2.03;;
38318;SDS011;24121;53.536;10.224;2023-05-07T14:50:47;4.95;;;2.60;;
38318;SDS011;24121;53.536;10.224;2023-05-07T14:53:13;4.20;;;1.98;;
38318;SDS011;24121;53.536;10.224;2023-05-07T14:55:38;2.88;;;2.00;;
38318;SDS011;24121;53.536;10.224;2023-05-07T14:58:03;1.90;;;1.70;;
38318;SDS011;24121;53.536;10.224;2023-05-07T15:00:29;2.50;;;1.80;;
38318;SDS011;24121;53.536;10.224;2023-05-07T15:02:55;3.70;;;1.95;;
38318;SDS011;24121;53.536;10.224;2023-05-07T15:05:36;3.72;;;1.80;;
38318;SDS011;24121;53.536;10.224;2023-05-07T15:08:01;2.35;;;1.98;;
38318;SDS011;24121;53.536;10.224;2023-05-07T15:10:27;2.05;;;1.90;;
38318;SDS011;24121;53.536;10.224;2023-05-07T15:12:52;4.55;;;2.15;;
38318;SDS011;24121;53.536;10.224;2023-05-07T15:15:18;2.00;;;1.77;;
38318;SDS011;24121;53.536;10.224;2023-05-07T15:17:43;2.33;;;1.90;;
38318;SDS011;24121;53.536;10.224;2023-05-07T15:20:08;2.38;;;1.95;;
38318;SDS011;24121;53.536;10.224;2023-05-07T15:22:34;2.65;;;1.85;;
38318;SDS011;24121;53.536;10.224;2023-05-07T15:25:01;3.72;;;2.05;;
38318;SDS011;24121;53.536;10.224;2023-05-07T15:27:27;4.80;;;1.92;;
38318;SDS011;24121;53.536;10.224;2023-05-07T15:29:53;2.58;;;2.20;;
38318;SDS011;24121;53.536;10.224;2023-05-07T15:32:18;2.92;;;1.90;;
38318;SDS011;24121;53.536;10.224;2023-05-07T15:34:43;2.75;;;1.83;;
38318;SDS011;24121;53.536;10.224;2023-05-07T15:37:08;3.50;;;2.50;;
38318;SDS011;24121;53.536;10.224;2023-05-07T15:39:34;2.55;;;2.35;;
38318;SDS011;24121;53.536;10.224;2023-05-07T15:42:00;6.70;;;3.72;;
38318;SDS011;24121;53.536;10.224;2023-05-07T15:44:26;6.85;;;4.30;;
38318;SDS011;24121;53.536;10.224;2023-05-07T15:46:53;3.13;;;2.13;;
38318;SDS011;24121;53.536;10.224;2023-05-07T15:49:19;2.33;;;1.77;;
38318;SDS011;24121;53.536;10.224;2023-05-07T15:51:44;3.55;;;2.13;;
38318;SDS011;24121;53.536;10.224;2023-05-07T15:54:09;2.42;;;2.20;;
38318;SDS011;24121;53.536;10.224;2023-05-07T15:56:35;5.15;;;2.10;;
38318;SDS011;24121;53.536;10.224;2023-05-07T15:59:00;4.10;;;2.42;;
38318;SDS011;24121;53.536;10.224;2023-05-07T16:01:26;3.28;;;2.13;;
38318;SDS011;24121;53.536;10.224;2023-05-07T16:03:52;2.95;;;2.17;;
38318;SDS011;24121;53.536;10.224;2023-05-07T16:06:17;3.88;;;2.45;;
38318;SDS011;24121;53.536;10.224;2023-05-07T16:08:42;3.88;;;2.53;;
38318;SDS011;24121;53.536;10.224;2023-05-07T16:11:08;6.18;;;2.38;;
38318;SDS011;24121;53.536;10.224;2023-05-07T16:13:34;4.32;;;2.25;;
38318;SDS011;24121;53.536;10.224;2023-05-07T16:16:00;4.25;;;2.53;;
38318;SDS011;24121;53.536;10.224;2023-05-07T16:18:26;2.90;;;2.22;;
38318;SDS011;24121;53.536;10.224;2023-05-07T16:20:51;1.50;;;1.40;;
38318;SDS011;24121;53.536;10.224;2023-05-07T16:23:17;3.15;;;2.08;;
38318;SDS011;24121;53.536;10.224;2023-05-07T16:25:43;2.03;;;1.75;;
38318;SDS011;24121;53.536;10.224;2023-05-07T16:28:08;4.32;;;1.90;;
38318;SDS011;24121;53.536;10.224;2023-05-07T16:30:33;2.47;;;2.08;;
38318;SDS011;24121;53.536;10.224;2023-05-07T16:32:59;2.60;;;2.28;;
38318;SDS011;24121;53.536;10.224;2023-05-07T16:35:24;3.38;;;2.25;;
38318;SDS011;24121;53.536;10.224;2023-05-07T16:37:49;3.28;;;2.15;;
38318;SDS011;24121;53.536;10.224;2023-05-07T16:40:15;3.67;;;1.73;;
38318;SDS011;24121;53.536;10.224;2023-05-07T16:42:40;4.28;;;1.90;;
38318;SDS011;24121;53.536;10.224;2023-05-07T16:45:05;2.33;;;2.13;;
38318;SDS011;24121;53.536;10.224;2023-05-07T16:47:31;2.85;;;2.30;;
38318;SDS011;24121;53.536;10.224;2023-05-07T16:49:57;2.92;;;2.63;;
38318;SDS011;24121;53.536;10.224;2023-05-07T16:52:24;3.58;;;2.30;;
38318;SDS011;24121;53.536;10.224;2023-05-07T16:54:50;4.57;;;2.58;;
38318;SDS011;24121;53.536;10.224;2023-05-07T16:57:15;2.30;;;1.90;;
38318;SDS011;24121;53.536;10.224;2023-05-07T16:59:40;2.17;;;1.98;;
38318;SDS011;24121;53.536;10.224;2023-05-07T17:02:06;3.55;;;2.22;;
38318;SDS011;24121;53.536;10.224;2023-05-07T17:04:31;3.03;;;2.15;;
38318;SDS011;24121;53.536;10.224;2023-05-07T17:06:57;2.20;;;2.00;;
38318;SDS011;24121;53.536;10.224;2023-05-07T17:09:22;2.70;;;1.98;;
38318;SDS011;24121;53.536;10.224;2023-05-07T17:11:48;3.05;;;2.00;;
38318;SDS011;24121;53.536;10.224;2023-05-07T17:14:13;2.60;;;1.90;;
38318;SDS011;24121;53.536;10.224;2023-05-07T17:16:38;3.00;;;1.60;;
38318;SDS011;24121;53.536;10.224;2023-05-07T17:19:04;2.58;;;2.10;;
38318;SDS011;24121;53.536;10.224;2023-05-07T17:21:29;2.25;;;1.88;;
38318;SDS011;24121;53.536;10.224;2023-05-07T17:23:54;3.67;;;1.92;;
38318;SDS011;24121;53.536;10.224;2023-05-07T17:26:20;3.38;;;2.08;;
38318;SDS011;24121;53.536;10.224;2023-05-07T17:28:45;3.50;;;1.90;;
38318;SDS011;24121;53.536;10.224;2023-05-07T17:31:10;3.15;;;1.95;;
38318;SDS011;24121;53.536;10.224;2023-05-07T17:33:36;2.60;;;2.00;;
38318;SDS011;24121;53.536;10.224;2023-05-07T17:36:01;3.15;;;1.75;;
38318;SDS011;24121;53.536;10.224;2023-05-07T17:38:29;4.05;;;2.40;;
38318;SDS011;24121;53.536;10.224;2023-05-07T17:40:56;3.08;;;2.25;;
38318;SDS011;24121;53.536;10.224;2023-05-07T17:43:22;2.63;;;1.85;;
38318;SDS011;24121;53.536;10.224;2023-05-07T17:45:48;3.00;;;2.10;;
38318;SDS011;24121;53.536;10.224;2023-05-07T17:48:14;2.92;;;1.90;;
38318;SDS011;24121;53.536;10.224;2023-05-07T17:50:39;2.28;;;2.05;;
38318;SDS011;24121;53.536;10.224;2023-05-07T17:53:05;4.40;;;2.17;;
38318;SDS011;24121;53.536;10.224;2023-05-07T17:55:30;2.10;;;1.77;;
38318;SDS011;24121;53.536;10.224;2023-05-07T17:57:57;2.60;;;2.03;;
38318;SDS011;24121;53.536;10.224;2023-05-07T18:00:23;3.17;;;2.00;;
38318;SDS011;24121;53.536;10.224;2023-05-07T18:02:50;2.13;;;1.92;;
38318;SDS011;24121;53.536;10.224;2023-05-07T18:05:15;2.55;;;2.08;;
38318;SDS011;24121;53.536;10.224;2023-05-07T18:07:41;2.17;;;1.90;;
38318;SDS011;24121;53.536;10.224;2023-05-07T18:10:06;2.95;;;1.90;;
38318;SDS011;24121;53.536;10.224;2023-05-07T18:12:32;3.20;;;2.15;;
38318;SDS011;24121;53.536;10.224;2023-05-07T18:14:57;6.05;;;2.20;;
38318;SDS011;24121;53.536;10.224;2023-05-07T18:17:22;3.55;;;2.25;;
38318;SDS011;24121;53.536;10.224;2023-05-07T18:19:48;4.03;;;2.30;;
38318;SDS011;24121;53.536;10.224;2023-05-07T18:22:14;3.60;;;2.10;;
38318;SDS011;24121;53.536;10.224;2023-05-07T18:24:40;2.20;;;2.00;;
38318;SDS011;24121;53.536;10.224;2023-05-07T18:27:05;4.20;;;2.33;;
38318;SDS011;24121;53.536;10.224;2023-05-07T18:29:30;3.55;;;2.25;;
38318;SDS011;24121;53.536;10.224;2023-05-07T18:31:55;2.80;;;1.80;;
38318;SDS011;24121;53.536;10.224;2023-05-07T18:34:21;5.25;;;1.80;;
38318;SDS011;24121;53.536;10.224;2023-05-07T18:36:46;2.80;;;2.10;;
38318;SDS011;24121;53.536;10.224;2023-05-07T18:39:11;2.20;;;1.90;;
38318;SDS011;24121;53.536;10.224;2023-05-07T18:41:37;5.18;;;2.17;;
38318;SDS011;24121;53.536;10.224;2023-05-07T18:44:02;3.08;;;1.90;;
38318;SDS011;24121;53.536;10.224;2023-05-07T18:46:27;3.25;;;2.05;;
38318;SDS011;24121;53.536;10.224;2023-05-07T18:48:53;2.30;;;1.92;;
38318;SDS011;24121;53.536;10.224;2023-05-07T18:51:18;2.22;;;1.92;;
38318;SDS011;24121;53.536;10.224;2023-05-07T18:53:44;2.00;;;1.80;;
38318;SDS011;24121;53.536;10.224;2023-05-07T18:56:09;3.97;;;2.15;;
38318;SDS011;24121;53.536;10.224;2023-05-07T18:58:34;3.17;;;2.08;;
38318;SDS011;24121;53.536;10.224;2023-05-07T19:01:00;3.38;;;2.38;;
38318;SDS011;24121;53.536;10.224;2023-05-07T19:03:26;4.22;;;2.10;;
38318;SDS011;24121;53.536;10.224;2023-05-07T19:05:51;3.25;;;2.05;;
38318;SDS011;24121;53.536;10.224;2023-05-07T19:08:17;3.20;;;2.38;;
38318;SDS011;24121;53.536;10.224;2023-05-07T19:10:42;4.50;;;2.25;;
38318;SDS011;24121;53.536;10.224;2023-05-07T19:13:08;3.75;;;2.00;;
38318;SDS011;24121;53.536;10.224;2023-05-07T19:15:34;2.30;;;2.10;;
38318;SDS011;24121;53.536;10.224;2023-05-07T19:17:59;3.90;;;2.47;;
38318;SDS011;24121;53.536;10.224;2023-05-07T19:20:25;2.80;;;2.30;;
38318;SDS011;24121;53.536;10.224;2023-05-07T19:22:50;3.85;;;2.53;;
38318;SDS011;24121;53.536;10.224;2023-05-07T19:25:15;3.03;;;2.50;;
38318;SDS011;24121;53.536;10.224;2023-05-07T19:27:42;3.67;;;2.53;;
38318;SDS011;24121;53.536;10.224;2023-05-07T19:30:07;3.55;;;2.42;;
38318;SDS011;24121;53.536;10.224;2023-05-07T19:32:33;3.33;;;2.47;;
38318;SDS011;24121;53.536;10.224;2023-05-07T19:34:59;3.25;;;2.35;;
38318;SDS011;24121;53.536;10.224;2023-05-07T19:37:24;5.45;;;2.53;;
38318;SDS011;24121;53.536;10.224;2023-05-07T19:39:51;3.85;;;2.40;;
38318;SDS011;24121;53.536;10.224;2023-05-07T19:42:17;3.22;;;2.63;;
38318;SDS011;24121;53.536;10.224;2023-05-07T19:44:42;2.97;;;2.20;;
38318;SDS011;24121;53.536;10.224;2023-05-07T19:47:08;3.75;;;2.20;;
38318;SDS011;24121;53.536;10.224;2023-05-07T19:49:33;3.58;;;2.20;;
38318;SDS011;24121;53.536;10.224;2023-05-07T19:51:58;3.22;;;2.40;;
38318;SDS011;24121;53.536;10.224;2023-05-07T19:54:24;3.05;;;2.35;;
38318;SDS011;24121;53.536;10.224;2023-05-07T19:56:49;2.75;;;2.53;;
38318;SDS011;24121;53.536;10.224;2023-05-07T19:59:14;2.40;;;2.20;;
38318;SDS011;24121;53.536;10.224;2023-05-07T20:01:40;2.42;;;2.08;;
38318;SDS011;24121;53.536;10.224;2023-05-07T20:04:05;2.60;;;2.40;;
38318;SDS011;24121;53.536;10.224;2023-05-07T20:06:30;3.63;;;2.70;;
38318;SDS011;24121;53.536;10.224;2023-05-07T20:08:56;2.95;;;2.20;;
38318;SDS011;24121;53.536;10.224;2023-05-07T20:11:21;2.85;;;2.33;;
38318;SDS011;24121;53.536;10.224;2023-05-07T20:13:47;5.47;;;2.42;;
38318;SDS011;24121;53.536;10.224;2023-05-07T20:16:12;3.70;;;2.50;;
38318;SDS011;24121;53.536;10.224;2023-05-07T20:18:37;2.97;;;2.63;;
38318;SDS011;24121;53.536;10.224;2023-05-07T20:21:03;2.80;;;2.40;;
38318;SDS011;24121;53.536;10.224;2023-05-07T20:23:29;3.92;;;2.60;;
38318;SDS011;24121;53.536;10.224;2023-05-07T20:25:55;3.63;;;2.55;;
38318;SDS011;24121;53.536;10.224;2023-05-07T20:28:21;4.22;;;2.85;;
38318;SDS011;24121;53.536;10.224;2023-05-07T20:30:47;3.15;;;2.40;;
38318;SDS011;24121;53.536;10.224;2023-05-07T20:33:12;3.15;;;2.85;;
38318;SDS011;24121;53.536;10.224;2023-05-07T20:35:38;4.10;;;3.00;;
38318;SDS011;24121;53.536;10.224;2023-05-07T20:38:04;3.40;;;2.85;;
38318;SDS011;24121;53.536;10.224;2023-05-07T20:40:29;4.15;;;2.67;;
38318;SDS011;24121;53.536;10.224;2023-05-07T20:42:57;3.70;;;2.65;;
38318;SDS011;24121;53.536;10.224;2023-05-07T20:45:23;2.70;;;2.50;;
38318;SDS011;24121;53.536;10.224;2023-05-07T20:47:48;2.92;;;2.67;;
38318;SDS011;24121;53.536;10.224;2023-05-07T20:50:13;5.18;;;3.08;;
38318;SDS011;24121;53.536;10.224;2023-05-07T20:52:39;3.38;;;2.85;;
38318;SDS011;24121;53.536;10.224;2023-05-07T20:55:05;3.13;;;2.70;;
38318;SDS011;24121;53.536;10.224;2023-05-07T20:57:31;3.40;;;2.72;;
38318;SDS011;24121;53.536;10.224;2023-05-07T20:59:56;4.60;;;2.85;;
38318;SDS011;24121;53.536;10.224;2023-05-07T21:02:21;2.90;;;2.58;;
38318;SDS011;24121;53.536;10.224;2023-05-07T21:04:47;2.97;;;2.67;;
38318;SDS011;24121;53.536;10.224;2023-05-07T21:07:15;3.90;;;3.00;;
38318;SDS011;24121;53.536;10.224;2023-05-07T21:09:40;3.80;;;3.42;;
38318;SDS011;24121;53.536;10.224;2023-05-07T21:12:06;4.45;;;3.33;;
38318;SDS011;24121;53.536;10.224;2023-05-07T21:14:31;4.53;;;3.08;;
38318;SDS011;24121;53.536;10.224;2023-05-07T21:16:57;4.40;;;2.85;;
38318;SDS011;24121;53.536;10.224;2023-05-07T21:19:24;3.90;;;3.17;;
38318;SDS011;24121;53.536;10.224;2023-05-07T21:21:49;4.82;;;2.60;;
38318;SDS011;24121;53.536;10.224;2023-05-07T21:24:15;3.05;;;2.78;;
38318;SDS011;24121;53.536;10.224;2023-05-07T21:26:40;3.53;;;2.95;;
38318;SDS011;24121;53.536;10.224;2023-05-07T21:29:05;2.92;;;2.63;;
38318;SDS011;24121;53.536;10.224;2023-05-07T21:31:32;3.00;;;2.67;;
38318;SDS011;24121;53.536;10.224;2023-05-07T21:33:58;3.35;;;2.75;;
38318;SDS011;24121;53.536;10.224;2023-05-07T21:36:23;3.50;;;2.97;;
38318;SDS011;24121;53.536;10.224;2023-05-07T21:38:48;3.60;;;2.80;;
38318;SDS011;24121;53.536;10.224;2023-05-07T21:41:14;2.95;;;2.75;;
38318;SDS011;24121;53.536;10.224;2023-05-07T21:43:39;3.40;;;3.08;;
38318;SDS011;24121;53.536;10.224;2023-05-07T21:46:05;5.30;;;2.75;;
38318;SDS011;24121;53.536;10.224;2023-05-07T21:48:31;3.70;;;3.33;;
38318;SDS011;24121;53.536;10.224;2023-05-07T21:51:00;4.63;;;2.92;;
38318;SDS011;24121;53.536;10.224;2023-05-07T21:53:26;3.53;;;3.10;;
38318;SDS011;24121;53.536;10.224;2023-05-07T21:55:52;3.20;;;2.90;;
38318;SDS011;24121;53.536;10.224;2023-05-07T21:58:17;3.67;;;3.05;;
38318;SDS011;24121;53.536;10.224;2023-05-07T22:00:42;4.68;;;2.70;;